createdAt,value
2018-02-05T00:02:02.140Z,60.83
2018-02-05T00:04:29.809Z,71.00
2018-02-05T00:06:57.409Z,71.50
2018-02-05T00:09:24.976Z,68.13
2018-02-05T00:11:52.542Z,75.57
2018-02-05T00:14:20.072Z,66.37
2018-02-05T00:16:47.607Z,77.37
2018-02-05T00:19:15.163Z,67.13
2018-02-05T00:21:42.936Z,62.83
2018-02-05T00:24:10.510Z,60.57
2018-02-05T00:26:38.364Z,64.63
2018-02-05T00:29:05.884Z,66.80
2018-02-05T00:31:33.504Z,74.97
2018-02-05T00:34:01.043Z,56.40
2018-02-05T00:36:28.557Z,63.63
2018-02-05T00:38:56.103Z,62.80
2018-02-05T00:41:23.862Z,57.63
2018-02-05T00:43:51.686Z,65.07
2018-02-05T00:46:19.213Z,57.40
2018-02-05T00:48:46.977Z,67.17
2018-02-05T00:51:14.519Z,58.27
2018-02-05T00:53:42.146Z,63.53
2018-02-05T00:56:09.682Z,57.80
2018-02-05T00:58:37.193Z,64.33
2018-02-05T01:01:04.756Z,67.27
2018-02-05T01:03:32.286Z,65.77
2018-02-05T01:05:59.878Z,60.70
2018-02-05T01:08:27.534Z,62.40
2018-02-05T01:10:55.097Z,61.63
2018-02-05T01:13:22.626Z,56.77
2018-02-05T01:15:50.155Z,57.87
2018-02-05T01:18:17.715Z,55.57
2018-02-05T01:20:45.321Z,62.33
2018-02-05T01:23:12.867Z,65.20
2018-02-05T01:25:40.421Z,62.43
2018-02-05T01:28:08.403Z,60.07
2018-02-05T01:30:36.010Z,66.63
2018-02-05T01:33:03.536Z,63.47
2018-02-05T01:35:31.303Z,53.80
2018-02-05T01:37:58.859Z,58.00
2018-02-05T01:40:26.386Z,61.77
2018-02-05T01:42:53.917Z,55.97
2018-02-05T01:45:21.478Z,61.80
2018-02-05T01:47:49.039Z,61.83
2018-02-05T01:50:16.628Z,63.53
2018-02-05T01:52:44.166Z,63.47
2018-02-05T01:55:11.784Z,61.63
2018-02-05T01:57:39.321Z,56.83
2018-02-05T02:00:07.407Z,62.40
2018-02-05T02:02:35.010Z,57.93
2018-02-05T02:05:02.557Z,56.50
2018-02-05T02:07:30.121Z,60.20
2018-02-05T02:09:57.732Z,60.07
2018-02-05T02:12:25.270Z,60.70
2018-02-05T02:14:53.076Z,56.27
2018-02-05T02:17:20.661Z,62.30
2018-02-05T02:19:48.284Z,56.37
2018-02-05T02:22:15.855Z,57.03
2018-02-05T02:24:43.411Z,51.30
2018-02-05T02:27:10.938Z,54.43
2018-02-05T02:29:38.468Z,57.50
2018-02-05T02:32:06.019Z,57.93
2018-02-05T02:34:33.570Z,55.80
2018-02-05T02:37:01.136Z,57.00
2018-02-05T02:39:28.680Z,53.20
2018-02-05T02:41:56.247Z,57.23
2018-02-05T02:44:23.793Z,58.27
2018-02-05T02:46:51.356Z,56.37
2018-02-05T02:49:18.908Z,55.10
2018-02-05T02:51:46.428Z,52.83
2018-02-05T02:54:13.961Z,51.63
2018-02-05T02:56:41.534Z,54.30
2018-02-05T02:59:09.166Z,55.73
2018-02-05T03:01:36.753Z,51.73
2018-02-05T03:04:04.288Z,51.67
2018-02-05T03:06:31.809Z,51.80
2018-02-05T03:08:59.725Z,54.53
2018-02-05T03:11:27.285Z,54.30
2018-02-05T03:13:54.798Z,49.30
2018-02-05T03:16:22.723Z,48.17
2018-02-05T03:18:50.254Z,57.17
2018-02-05T03:21:17.811Z,50.83
2018-02-05T03:23:45.420Z,54.47
2018-02-05T03:26:13.238Z,51.07
2018-02-05T03:28:40.900Z,48.00
2018-02-05T03:31:08.456Z,44.67
2018-02-05T03:33:35.991Z,53.50
2018-02-05T03:36:03.596Z,47.73
2018-02-05T03:38:31.105Z,39.63
2018-02-05T03:40:58.939Z,39.10
2018-02-05T03:43:26.504Z,39.20
2018-02-05T03:45:54.052Z,40.10
2018-02-05T03:48:21.582Z,43.50
2018-02-05T03:50:49.113Z,47.33
2018-02-05T03:53:16.714Z,40.00
2018-02-05T03:55:44.260Z,45.00
2018-02-05T03:58:11.802Z,40.40
2018-02-05T04:00:39.376Z,46.60
2018-02-05T04:03:06.936Z,44.10
2018-02-05T04:05:34.741Z,45.70
2018-02-05T04:08:02.332Z,45.33
2018-02-05T04:10:29.873Z,40.40
2018-02-05T04:12:57.409Z,43.77
2018-02-05T04:15:24.997Z,38.87
2018-02-05T04:17:52.533Z,45.90
2018-02-05T04:20:20.080Z,45.23
2018-02-05T04:22:47.632Z,36.00
2018-02-05T04:25:15.166Z,45.10
2018-02-05T04:27:42.727Z,36.63
2018-02-05T04:30:10.381Z,44.03
2018-02-05T04:32:37.921Z,42.10
2018-02-05T04:35:05.571Z,35.13
2018-02-05T04:37:33.444Z,34.33
2018-02-05T04:40:01.005Z,40.37
2018-02-05T04:42:28.586Z,35.87
2018-02-05T04:44:56.096Z,34.57
2018-02-05T04:47:23.648Z,38.77
2018-02-05T04:49:51.228Z,34.80
2018-02-05T04:52:18.808Z,34.30
2018-02-05T04:54:46.328Z,38.27
2018-02-05T04:57:13.869Z,36.53
2018-02-05T04:59:41.420Z,38.20
2018-02-05T05:02:09.005Z,34.37
2018-02-05T05:04:36.607Z,33.77
2018-02-05T05:07:04.160Z,31.90
2018-02-05T05:09:31.775Z,37.43
2018-02-05T05:11:59.320Z,31.87
2018-02-05T05:14:26.865Z,28.93
2018-02-05T05:16:54.386Z,36.47
2018-02-05T05:19:21.983Z,36.83
2018-02-05T05:21:49.577Z,32.10
2018-02-05T05:24:17.104Z,30.97
2018-02-05T05:26:44.672Z,31.90
2018-02-05T05:29:12.213Z,37.90
2018-02-05T05:31:39.764Z,36.30
2018-02-05T05:34:07.350Z,30.97
2018-02-05T05:36:35.270Z,30.77
2018-02-05T05:39:02.838Z,31.40
2018-02-05T05:41:30.401Z,33.87
2018-02-05T05:43:58.199Z,37.53
2018-02-05T05:46:25.715Z,38.73
2018-02-05T05:48:53.287Z,30.70
2018-02-05T05:51:21.082Z,33.07
2018-02-05T05:53:48.597Z,34.10
2018-02-05T05:56:16.202Z,35.50
2018-02-05T05:58:43.764Z,32.57
2018-02-05T06:01:11.321Z,32.27
2018-02-05T06:03:38.880Z,35.37
2018-02-05T06:06:07.122Z,29.47
2018-02-05T06:08:34.718Z,27.57
2018-02-05T06:11:02.242Z,31.53
2018-02-05T06:13:29.790Z,25.23
2018-02-05T06:15:57.350Z,25.63
2018-02-05T06:18:24.877Z,29.43
2018-02-05T06:20:52.405Z,31.00
2018-02-05T06:23:20.010Z,28.30
2018-02-05T06:25:47.537Z,24.53
2018-02-05T06:28:17.594Z,27.40
2018-02-05T06:30:45.118Z,27.87
2018-02-05T06:33:12.694Z,23.90
2018-02-05T06:35:40.237Z,27.63
2018-02-05T06:38:08.114Z,27.60
2018-02-05T06:40:35.646Z,28.17
2018-02-05T06:43:03.196Z,24.30
2018-02-05T06:45:30.756Z,22.80
2018-02-05T06:47:58.397Z,24.93
2018-02-05T06:50:37.715Z,32.37
2018-02-05T06:53:17.097Z,25.10
2018-02-05T06:55:47.619Z,24.70
2018-02-05T06:58:15.183Z,28.33
2018-02-05T07:00:43.090Z,20.53
2018-02-05T07:03:10.637Z,24.13
2018-02-05T07:05:38.222Z,22.10
2018-02-05T07:08:05.749Z,24.90
2018-02-05T07:10:33.318Z,22.40
2018-02-05T07:13:00.866Z,30.37
2018-02-05T07:15:28.397Z,33.07
2018-02-05T07:17:55.982Z,28.70
2018-02-05T07:20:23.884Z,22.60
2018-02-05T07:22:51.414Z,26.03
2018-02-05T07:25:18.996Z,23.43
2018-02-05T07:27:46.625Z,25.20
2018-02-05T07:30:14.156Z,22.83
2018-02-05T07:32:41.699Z,25.77
2018-02-05T07:35:09.220Z,22.63
2018-02-05T07:37:36.894Z,21.43
2018-02-05T07:40:04.569Z,21.93
2018-02-05T07:42:32.100Z,22.87
2018-02-05T07:44:59.685Z,22.70
2018-02-05T07:47:27.671Z,24.73
2018-02-05T07:49:55.291Z,25.23
2018-02-05T07:52:22.849Z,20.00
2018-02-05T07:54:50.414Z,19.50
2018-02-05T07:57:18.664Z,25.50
2018-02-05T07:59:46.209Z,19.47
2018-02-05T08:02:13.725Z,20.50
2018-02-05T08:04:41.324Z,17.47
2018-02-05T08:07:08.849Z,23.63
2018-02-05T08:09:36.400Z,31.60
2018-02-05T08:12:03.947Z,21.03
2018-02-05T08:14:31.768Z,23.60
2018-02-05T08:16:59.334Z,25.40
2018-02-05T08:19:27.190Z,16.63
2018-02-05T08:21:54.734Z,22.50
2018-02-05T08:24:22.297Z,22.23
2018-02-05T08:26:49.851Z,19.10
2018-02-05T08:29:17.740Z,21.27
2018-02-05T08:31:45.299Z,16.67
2018-02-05T08:34:12.858Z,19.20
2018-02-05T08:36:40.622Z,17.50
2018-02-05T08:39:08.490Z,24.20
2018-02-05T08:41:36.086Z,22.97
2018-02-05T08:44:03.632Z,17.20
2018-02-05T08:46:31.149Z,18.13
2018-02-05T08:48:58.750Z,16.43
2018-02-05T08:51:26.282Z,21.93
2018-02-05T08:53:53.899Z,21.60
2018-02-05T08:56:21.461Z,16.40
2018-02-05T08:58:49.047Z,15.77
2018-02-05T09:01:16.858Z,14.47
2018-02-05T09:03:44.476Z,14.13
2018-02-05T09:06:12.166Z,17.97
2018-02-05T09:08:40.048Z,16.00
2018-02-05T09:11:07.716Z,20.77
2018-02-05T09:13:35.278Z,18.60
2018-02-05T09:16:02.853Z,18.37
2018-02-05T09:18:30.398Z,16.90
2018-02-05T09:20:57.925Z,18.47
2018-02-05T09:23:25.491Z,14.70
2018-02-05T09:25:53.033Z,16.97
2018-02-05T09:28:20.734Z,18.10
2018-02-05T09:30:48.367Z,15.60
2018-02-05T09:33:16.699Z,13.37
2018-02-05T09:35:44.537Z,16.43
2018-02-05T09:38:12.121Z,15.47
2018-02-05T09:40:39.764Z,15.60
2018-02-05T09:43:07.951Z,13.13
2018-02-05T09:45:35.540Z,19.37
2018-02-05T09:48:03.176Z,15.50
2018-02-05T09:50:30.723Z,17.57
2018-02-05T09:52:58.246Z,16.03
2018-02-05T09:55:25.827Z,13.60
2018-02-05T09:57:53.355Z,17.10
2018-02-05T10:00:20.903Z,13.13
2018-02-05T10:02:48.454Z,20.77
2018-02-05T10:05:15.987Z,21.63
2018-02-05T10:07:43.858Z,16.30
2018-02-05T10:10:11.402Z,13.83
2018-02-05T10:12:39.673Z,14.87
2018-02-05T10:15:07.295Z,13.27
2018-02-05T10:17:34.877Z,14.73
2018-02-05T10:20:02.425Z,13.73
2018-02-05T10:22:30.579Z,14.10
2018-02-05T10:24:58.438Z,16.20
2018-02-05T10:27:26.198Z,16.20
2018-02-05T10:29:54.154Z,13.70
2018-02-05T10:32:21.935Z,15.87
2018-02-05T10:34:50.747Z,14.57
2018-02-05T10:37:18.395Z,13.60
2018-02-05T10:39:45.992Z,11.97
2018-02-05T10:42:13.629Z,16.13
2018-02-05T10:44:41.196Z,23.17
2018-02-05T10:47:08.747Z,11.13
2018-02-05T10:49:36.389Z,12.63
2018-02-05T10:52:03.965Z,11.23
2018-02-05T10:54:31.552Z,15.93
2018-02-05T10:56:59.245Z,12.23
2018-02-05T10:59:26.829Z,11.97
2018-02-05T11:01:54.704Z,12.03
2018-02-05T11:04:22.302Z,13.30
2018-02-05T11:06:49.847Z,18.13
2018-02-05T11:09:17.383Z,15.10
2018-02-05T11:11:44.994Z,22.90
2018-02-05T11:14:12.568Z,12.33
2018-02-05T11:16:40.104Z,10.27
2018-02-05T11:19:07.632Z,14.33
2018-02-05T11:21:35.152Z,11.60
2018-02-05T11:24:02.699Z,16.97
2018-02-05T11:26:30.505Z,17.67
2018-02-05T11:28:58.045Z,14.50
2018-02-05T11:31:25.595Z,12.93
2018-02-05T11:33:53.122Z,10.60
2018-02-05T11:36:20.851Z,12.17
2018-02-05T11:38:48.828Z,21.77
2018-02-05T11:41:16.487Z,15.30
2018-02-05T11:43:44.120Z,13.20
2018-02-05T11:46:11.718Z,12.47
2018-02-05T11:48:39.325Z,10.40
2018-02-05T11:51:06.882Z,10.40
2018-02-05T11:53:34.408Z,10.03
2018-02-05T11:56:01.949Z,12.50
2018-02-05T11:58:29.477Z,16.13
2018-02-05T12:00:57.054Z,12.33
2018-02-05T12:03:24.673Z,11.30
2018-02-05T12:05:52.329Z,11.60
2018-02-05T12:08:20.158Z,12.27
2018-02-05T12:10:47.703Z,10.23
2018-02-05T12:13:15.594Z,18.13
2018-02-05T12:15:43.230Z,14.13
2018-02-05T12:18:10.873Z,13.97
2018-02-05T12:20:38.606Z,11.77
2018-02-05T12:23:06.190Z,12.90
2018-02-05T12:25:34.011Z,13.33
2018-02-05T12:28:01.568Z,10.40
2018-02-05T12:30:30.023Z,15.20
2018-02-05T12:32:57.572Z,11.20
2018-02-05T12:35:25.122Z,11.60
2018-02-05T12:37:52.700Z,13.20
2018-02-05T12:40:20.241Z,17.63
2018-02-05T12:42:47.800Z,11.10
2018-02-05T12:45:15.359Z,10.73
2018-02-05T12:47:42.994Z,17.70
2018-02-05T12:50:10.551Z,9.90
2018-02-05T12:52:38.223Z,9.80
2018-02-05T12:55:06.168Z,14.10
2018-02-05T12:57:33.734Z,11.93
2018-02-05T13:00:06.803Z,10.43
2018-02-05T13:02:34.619Z,9.80
2018-02-05T13:07:59.557Z,10.70
2018-02-05T13:10:27.096Z,10.60
2018-02-05T13:12:54.934Z,9.83
2018-02-05T13:15:22.485Z,10.20
2018-02-05T13:17:50.289Z,12.10
2018-02-05T13:20:17.865Z,10.10
2018-02-05T13:22:45.425Z,10.47
2018-02-05T13:25:12.976Z,10.73
2018-02-05T13:27:40.536Z,11.30
2018-02-05T13:30:08.054Z,11.33
2018-02-05T13:32:35.614Z,11.63
2018-02-05T13:35:03.170Z,13.43
2018-02-05T13:37:30.725Z,11.80
2018-02-05T13:39:58.261Z,11.30
2018-02-05T13:42:25.833Z,10.10
2018-02-05T13:44:53.394Z,12.53
2018-02-05T13:47:20.943Z,10.03
2018-02-05T13:49:48.755Z,11.80
2018-02-05T13:52:16.634Z,10.87
2018-02-05T13:54:44.149Z,11.00
2018-02-05T13:57:11.690Z,10.40
2018-02-05T13:59:39.231Z,9.60
2018-02-05T14:02:07.076Z,9.73
2018-02-05T14:04:34.672Z,9.80
2018-02-05T14:07:02.242Z,10.83
2018-02-05T14:09:29.764Z,9.87
2018-02-05T14:11:57.304Z,10.33
2018-02-05T14:14:24.838Z,10.63
2018-02-05T14:16:52.428Z,9.67
2018-02-05T14:19:20.306Z,10.13
2018-02-05T14:21:48.175Z,10.33
2018-02-05T14:24:15.771Z,13.47
2018-02-05T14:26:43.287Z,10.20
2018-02-05T14:29:10.863Z,12.60
2018-02-05T14:31:38.391Z,10.73
2018-02-05T14:34:05.955Z,10.50
2018-02-05T14:36:33.506Z,11.50
2018-02-05T14:39:01.040Z,12.57
2018-02-05T14:41:28.559Z,11.80
2018-02-05T14:43:56.119Z,11.30
2018-02-05T14:46:23.715Z,10.30
2018-02-05T14:48:51.257Z,11.53
2018-02-05T14:51:18.810Z,12.30
2018-02-05T14:53:46.385Z,11.60
2018-02-05T14:56:14.217Z,13.50
2018-02-05T14:58:41.790Z,10.70
2018-02-05T15:01:09.305Z,11.13
2018-02-05T15:03:36.856Z,11.37
2018-02-05T15:06:04.413Z,12.20
2018-02-05T15:08:31.940Z,11.83
2018-02-05T15:10:59.798Z,14.33
2018-02-05T15:13:27.333Z,11.67
2018-02-05T15:15:54.872Z,11.73
2018-02-05T15:18:22.498Z,12.30
2018-02-05T15:20:50.026Z,11.30
2018-02-05T15:23:17.575Z,9.83
2018-02-05T15:25:45.490Z,12.77
2018-02-05T15:28:13.011Z,9.80
2018-02-05T15:30:40.609Z,10.53
2018-02-05T15:33:08.196Z,9.90
2018-02-05T15:35:35.749Z,9.67
2018-02-05T15:38:03.279Z,12.27
2018-02-05T15:40:30.850Z,21.90
2018-02-05T15:42:58.510Z,12.10
2018-02-05T15:45:26.065Z,10.90
2018-02-05T15:47:53.601Z,10.50
2018-02-05T15:50:21.181Z,22.07
2018-02-05T15:52:48.722Z,10.87
2018-02-05T15:55:16.270Z,12.90
2018-02-05T15:57:43.856Z,11.10
2018-02-05T16:00:11.450Z,11.10
2018-02-05T16:02:38.953Z,10.67
2018-02-05T16:05:06.547Z,10.90
2018-02-05T16:07:34.079Z,12.93
2018-02-05T16:10:01.623Z,9.73
2018-02-05T16:12:29.184Z,17.30
2018-02-05T16:14:56.726Z,11.60
2018-02-05T16:17:24.326Z,17.00
2018-02-05T16:19:51.912Z,14.60
2018-02-05T16:22:19.472Z,10.77
2018-02-05T16:24:47.009Z,12.17
2018-02-05T16:27:14.678Z,11.90
2018-02-05T16:29:42.290Z,11.13
2018-02-05T16:32:10.118Z,11.70
2018-02-05T16:34:37.689Z,12.53
2018-02-05T16:37:05.238Z,12.17
2018-02-05T16:39:32.799Z,11.17
2018-02-05T16:42:00.577Z,15.80
2018-02-05T16:44:28.529Z,9.97
2018-02-05T16:46:56.090Z,10.33
2018-02-05T16:49:23.642Z,10.47
2018-02-05T16:51:51.189Z,10.93
2018-02-05T16:54:18.830Z,9.90
2018-02-05T16:56:46.358Z,13.70
2018-02-05T16:59:13.888Z,12.77
2018-02-05T17:01:41.425Z,12.93
2018-02-05T17:04:09.050Z,11.20
2018-02-05T17:06:36.596Z,10.70
2018-02-05T17:09:04.491Z,9.73
2018-02-05T17:11:32.095Z,13.13
2018-02-05T17:13:59.625Z,13.73
2018-02-05T17:16:27.317Z,11.50
2018-02-05T17:18:54.856Z,16.10
2018-02-05T17:21:22.489Z,14.57
2018-02-05T17:23:50.056Z,22.43
2018-02-05T17:26:17.629Z,13.67
2018-02-05T17:28:45.217Z,10.53
2018-02-05T17:31:12.793Z,14.10
2018-02-05T17:33:40.338Z,11.13
2018-02-05T17:36:07.890Z,17.43
2018-02-05T17:38:35.440Z,20.60
2018-02-05T17:41:03.025Z,16.30
2018-02-05T17:43:30.566Z,14.77
2018-02-05T17:45:58.137Z,14.13
2018-02-05T17:48:25.766Z,13.20
2018-02-05T17:50:53.330Z,13.50
2018-02-05T17:53:20.875Z,16.10
2018-02-05T17:55:48.500Z,24.93
2018-02-05T17:58:16.071Z,15.67
2018-02-05T18:00:44.489Z,13.40
2018-02-05T18:03:12.320Z,14.67
2018-02-05T18:05:39.869Z,13.40
2018-02-05T18:08:07.424Z,14.40
2018-02-05T18:10:35.504Z,17.63
2018-02-05T18:13:03.495Z,11.87
2018-02-05T18:15:31.030Z,13.20
2018-02-05T18:17:58.609Z,12.97
2018-02-05T18:20:26.474Z,13.70
2018-02-05T18:22:54.038Z,13.23
2018-02-05T18:25:21.574Z,14.47
2018-02-05T18:27:49.230Z,16.03
2018-02-05T18:30:17.027Z,18.13
2018-02-05T18:32:44.570Z,14.33
2018-02-05T18:35:12.189Z,15.97
2018-02-05T18:37:39.735Z,19.20
2018-02-05T18:40:07.414Z,16.43
2018-02-05T18:42:35.244Z,19.00
2018-02-05T18:45:03.124Z,19.07
2018-02-05T18:47:30.698Z,13.07
2018-02-05T18:49:58.248Z,16.80
2018-02-05T18:52:25.818Z,14.73
2018-02-05T18:54:53.421Z,15.07
2018-02-05T18:57:21.211Z,25.33
2018-02-05T18:59:48.795Z,17.87
2018-02-05T19:02:21.248Z,15.90
2018-02-05T19:04:48.881Z,19.03
2018-02-05T19:07:16.394Z,15.60
2018-02-05T19:09:43.914Z,15.93
2018-02-05T19:12:11.474Z,19.30
2018-02-05T19:14:39.014Z,15.00
2018-02-05T19:17:06.625Z,21.97
2018-02-05T19:19:34.184Z,18.37
2018-02-05T19:22:01.747Z,16.00
2018-02-05T19:24:29.439Z,14.43
2018-02-05T19:26:57.092Z,14.93
2018-02-05T19:29:24.627Z,21.33
2018-02-05T19:31:52.258Z,18.13
2018-02-05T19:34:19.906Z,15.07
2018-02-05T19:36:47.502Z,16.80
2018-02-05T19:39:15.038Z,15.67
2018-02-05T19:41:42.619Z,27.73
2018-02-05T19:44:10.186Z,19.50
2018-02-05T19:46:37.792Z,17.33
2018-02-05T19:49:05.351Z,19.33
2018-02-05T19:51:32.899Z,21.67
2018-02-05T19:54:00.461Z,19.70
2018-02-05T19:56:28.022Z,20.53
2018-02-05T19:58:55.532Z,18.97
2018-02-05T20:01:23.324Z,19.60
2018-02-05T20:03:50.867Z,15.77
2018-02-05T20:06:18.390Z,13.53
2018-02-05T20:08:45.955Z,15.57
2018-02-05T20:11:13.771Z,15.43
2018-02-05T20:13:41.639Z,18.00
2018-02-05T20:16:09.210Z,16.77
2018-02-05T20:18:36.800Z,16.03
2018-02-05T20:21:04.363Z,17.53
2018-02-05T20:23:32.193Z,16.17
2018-02-05T20:25:59.768Z,17.40
2018-02-05T20:28:27.319Z,22.60
2018-02-05T20:30:54.869Z,18.40
2018-02-05T20:33:22.471Z,22.40
2018-02-05T20:35:50.018Z,16.43
2018-02-05T20:38:17.629Z,16.70
2018-02-05T20:40:45.621Z,23.40
2018-02-05T20:43:13.173Z,19.53
2018-02-05T20:45:40.782Z,21.90
2018-02-05T20:48:08.334Z,18.33
2018-02-05T20:50:35.931Z,31.90
2018-02-05T20:53:03.504Z,18.97
2018-02-05T20:55:31.291Z,17.80
2018-02-05T20:57:58.889Z,19.03
2018-02-05T21:00:26.470Z,17.30
2018-02-05T21:02:54.058Z,26.53
2018-02-05T21:05:21.620Z,17.70
2018-02-05T21:07:49.194Z,19.57
2018-02-05T21:10:16.825Z,17.40
2018-02-05T21:12:44.933Z,23.63
2018-02-05T21:15:12.898Z,16.63
2018-02-05T21:17:40.563Z,19.50
2018-02-05T21:20:08.181Z,16.23
2018-02-05T21:22:36.809Z,20.30
2018-02-05T21:25:04.824Z,24.33
2018-02-05T21:27:32.383Z,18.03
2018-02-05T21:29:59.910Z,24.47
2018-02-05T21:32:27.528Z,22.03
2018-02-05T21:34:55.074Z,18.17
2018-02-05T21:37:22.630Z,17.27
2018-02-05T21:39:50.632Z,18.67
2018-02-05T21:42:18.427Z,21.43
2018-02-05T21:44:46.177Z,17.67
2018-02-05T21:47:13.745Z,18.70
2018-02-05T21:49:41.289Z,28.47
2018-02-05T21:52:08.821Z,21.37
2018-02-05T21:54:36.456Z,17.87
2018-02-05T21:57:04.082Z,18.33
2018-02-05T21:59:31.930Z,19.70
2018-02-05T22:01:59.841Z,23.20
2018-02-05T22:04:27.447Z,17.73
2018-02-05T22:06:55.004Z,19.00
2018-02-05T22:09:22.593Z,21.60
2018-02-05T22:11:50.141Z,21.77
2018-02-05T22:14:18.060Z,17.27
2018-02-05T22:16:45.651Z,32.47
2018-02-05T22:19:13.289Z,21.70
2018-02-05T22:21:40.903Z,27.93
2018-02-05T22:24:08.472Z,22.50
2018-02-05T22:26:36.006Z,18.57
2018-02-05T22:29:03.632Z,20.33
2018-02-05T22:31:31.158Z,20.73
2018-02-05T22:33:58.805Z,21.17
2018-02-05T22:36:26.411Z,16.80
2018-02-05T22:38:53.932Z,20.63
2018-02-05T22:41:21.523Z,21.97
2018-02-05T22:43:49.063Z,21.77
2018-02-05T22:46:16.853Z,29.13
2018-02-05T22:48:44.476Z,19.27
2018-02-05T22:51:12.015Z,19.03
2018-02-05T22:53:39.593Z,17.83
2018-02-05T22:56:07.135Z,22.43
2018-02-05T22:58:34.781Z,16.50
2018-02-05T23:01:03.067Z,26.90
2018-02-05T23:03:30.622Z,20.47
2018-02-05T23:05:58.149Z,23.53
2018-02-05T23:08:25.899Z,21.00
2018-02-05T23:10:53.422Z,19.53
2018-02-05T23:13:21.034Z,23.13
2018-02-05T23:15:48.582Z,18.70
2018-02-05T23:18:16.106Z,17.60
2018-02-05T23:20:43.702Z,34.93
2018-02-05T23:23:11.295Z,28.20
2018-02-05T23:25:38.844Z,16.83
2018-02-05T23:28:06.443Z,24.00
2018-02-05T23:30:34.120Z,28.97
2018-02-05T23:33:01.686Z,20.50
2018-02-05T23:35:29.251Z,21.23
2018-02-05T23:37:56.852Z,22.03
2018-02-05T23:40:24.476Z,24.63
2018-02-05T23:42:52.502Z,33.70
2018-02-05T23:45:20.068Z,29.50
2018-02-05T23:47:47.624Z,25.00
2018-02-05T23:50:15.282Z,22.83
2018-02-05T23:52:42.822Z,29.00
2018-02-05T23:55:10.411Z,29.77
2018-02-05T23:57:37.999Z,26.93
